GranFondo MTB di Antillo

Classifica di Categoria

24/03/2019



Ordine Cognome Nome Societa Tempo tot Punti Percorso
Categoria DEB
1 La Motta Antonino Team Bike del Tirreno 00:01:42:43.002 1000.00 MedioFondo Km 34
2 Fotia Demetrio Marco Montoli 00:01:43:00.499 850.00 MedioFondo Km 34
3 Lo Giudice Matteo ASD Enerwolf 00:02:19:14.395 800.00 MedioFondo Km 34
Categoria SEN 1
1 Currò Giuseppe Passione MTB Messina 00:02:16:56.205 1000.00 MedioFondo Km 34
Categoria SUP A
1 Interlici Emanuele MTB Club Vittoria Team 00:01:55:17.390 1000.00 MedioFondo Km 34
2 Scappatura Antonio Marco Montoli 00:01:57:06.624 850.00 MedioFondo Km 34
3 Di Bella Agatino Team Jonica Megamo 00:02:09:50.766 800.00 MedioFondo Km 34
4 Davì Biagio Ciclo Tyndaris 00:02:39:34.887 750.00 MedioFondo Km 34
Categoria SUP B
1 Riccioli Mario Etna Eagles Team 00:01:43:40.703 1000.00 MedioFondo Km 34
2 Papa Francesco Ciclo Tyndaris 00:03:10:44.080 850.00 MedioFondo Km 34
Categoria DON A
1 Foti Giovanna Salinbici 00:03:49:33.190 1000.00 MedioFondo Km 34
Categoria DON B
1 Vita Sarah Paola Leto Free Bike Piero Leone 00:02:11:23.753 1000.00 MedioFondo Km 34
2 Sidoti Arianna MTB Club Vittoria Team 00:02:12:01.497 850.00 MedioFondo Km 34
3 Romeo Anna Leto Free Bike Piero Leone 00:02:13:10.738 800.00 MedioFondo Km 34
4 Costanzo Mariacatena Fly Fitness 00:02:19:40.182 750.00 MedioFondo Km 34
Categoria JUN
1 La Malfa Federico Team Bike del Tirreno 00:02:08:23.528 1000.00 GranFondo Km 44
2 Barberi Giuseppe Team Bike del Tirreno 00:02:09:43.767 850.00 GranFondo Km 44
3 Russo Andrea ASD Enerwolf 00:02:17:23.201 800.00 GranFondo Km 44
4 Politanò Gianluca Be-Cycle 00:02:24:23.642 750.00 GranFondo Km 44
5 Bellantone Raffaele Bici & Bike 00:02:35:04.874 700.00 GranFondo Km 44
6 Campagna Gianpiero Team Bike del Tirreno 00:02:36:11.163 675.00 GranFondo Km 44
7 Tramontana Francesco Marco Montoli 00:02:37:50.149 650.00 GranFondo Km 44
8 Crispino Francesco Team Bike Noto 00:02:40:57.309 625.00 GranFondo Km 44
9 Frazzica Andrea Carmelo Fly Fitness 00:02:46:13.309 600.00 GranFondo Km 44
10 Vasiliu Andrei Alexandru Bici & Bike 00:02:54:20.238 575.00 GranFondo Km 44
Categoria SEN 1
1 Cicciari Giuseppe Special Bikers Team 00:01:57:38.870 1000.00 GranFondo Km 44
2 Vigoroso Antonio MTB Componentspoint-FRM Team 00:01:59:29.854 850.00 GranFondo Km 44
3 Asteriti Pietro Myskellos 00:02:00:06.559 800.00 GranFondo Km 44
4 Graziano Rosario Reventino Bike Team 00:02:04:09.065 750.00 GranFondo Km 44
5 Falbo Francesco Giuseppe GigaBike 00:02:04:40.310 700.00 GranFondo Km 44
6 Gugliotta Antonino Team Jonica Megamo 00:02:09:46.766 675.00 GranFondo Km 44
7 Barone Giangregori MTB Club Vittoria Team 00:02:13:16.987 650.00 GranFondo Km 44
8 Carciolo Vincenzo Maletto Bike 00:02:15:18.719 625.00 GranFondo Km 44
9 Cicirello Gioacchino Bici & Bike 00:02:15:27.968 600.00 GranFondo Km 44
10 Marzo Antonio Be-Cycle 00:02:17:21.893 575.00 GranFondo Km 44
11 Mammoliti Giuseppe Be-Cycle 00:02:18:00.406 570.00 GranFondo Km 44
12 Rendo Vincenzo Team Bike Noto 00:02:19:56.930 565.00 GranFondo Km 44
13 Marino Sebastiano Bike Marino Messina 00:02:24:16.391 560.00 GranFondo Km 44
14 Santisi Leopoldo Bike Marino Messina 00:02:24:22.353 555.00 GranFondo Km 44
15 Belvedere Claudio San Lucido Bikers 00:02:24:55.636 550.00 GranFondo Km 44
16 Rosano Carmelo Driz Bikers 3000 00:02:25:12.133 545.00 GranFondo Km 44
17 De Meo Giovanni Internet Point De Salvo 00:02:35:04.638 540.00 GranFondo Km 44
18 Cacopardo Danilo Team Bike del Tirreno 00:02:35:04.992 535.00 GranFondo Km 44
19 Vito Francesco Passione MTB Messina 00:02:35:05.111 530.00 GranFondo Km 44
20 Russo Venerando ASD Enerwolf 00:02:35:06.057 525.00 GranFondo Km 44
21 Gianchino Graziano Amici Del Pedale Scicli 00:02:36:50.158 520.00 GranFondo Km 44
22 Bello Matteo Bike Marino Messina 00:02:39:37.887 515.00 GranFondo Km 44
23 Parisi Angelo Team Jonica Megamo 00:02:45:50.312 510.00 GranFondo Km 44
24 Carnevale Dario Fly Fitness 00:03:17:55.021 505.00 GranFondo Km 44
25 Savoca Elio Fly Fitness 00:03:48:44.677 500.00 GranFondo Km 44
Categoria SEN 2
1 Spadaro Giovanni ASD Enerwolf 00:02:10:03.264 1000.00 GranFondo Km 44
2 Labbate Antonio Reventino Bike Team 00:02:11:51.009 850.00 GranFondo Km 44
3 Interlici Giuseppe MTB Club Vittoria Team 00:02:13:16.237 800.00 GranFondo Km 44
4 Piccione Danilo MTB Club Vittoria Team 00:02:13:17.487 750.00 GranFondo Km 44
5 Bontempo Ivano Amici Dei Peloritani 00:02:14:46.974 700.00 GranFondo Km 44
6 Petrungaro Emanuele San Lucido Bikers 00:02:15:52.224 675.00 GranFondo Km 44
7 Alati Carmelo Marco Montoli 00:02:16:59.205 650.00 GranFondo Km 44
8 Gentile Serafino Be-Cycle 00:02:17:21.701 625.00 GranFondo Km 44
9 Freni Salvatore Leto Free Bike Piero Leone 00:02:17:35.199 600.00 GranFondo Km 44
10 Emmi Roberto Leto Free Bike Piero Leone 00:02:19:02.937 575.00 GranFondo Km 44
11 Cama Giuseppe Marco Montoli 00:02:20:34.173 570.00 GranFondo Km 44
12 Scarlato Antonino Passione MTB Messina 00:02:24:36.639 565.00 GranFondo Km 44
13 Rizza Santo Polisportiva MTB Avola 00:02:24:43.637 560.00 GranFondo Km 44
14 Tarda Graziano Ciclistica Catanese 00:02:24:48.386 555.00 GranFondo Km 44
15 Pizzo Claudio Team Bike Noto 00:02:24:48.637 550.00 GranFondo Km 44
16 Scrivano Antonio Bodymind 00:02:34:58.490 545.00 GranFondo Km 44
17 Mangano Giacomo Bike Marino Messina 00:02:35:04.165 540.00 GranFondo Km 44
18 Fiorillo Simone Vibo Bikers Skatenati 00:02:35:05.938 535.00 GranFondo Km 44
19 De Francesco Simone Leto Free Bike Piero Leone 00:02:35:25.919 530.00 GranFondo Km 44
20 Gallo Daniele GigaBike 00:02:36:01.914 525.00 GranFondo Km 44
21 Ficili Giovanni Amici Del Pedale Scicli 00:02:36:56.387 520.00 GranFondo Km 44
22 Bongiorno Giuseppe MTB Club Vittoria Team 00:02:37:17.904 515.00 GranFondo Km 44
23 Ivardo Giovanni Passione MTB Messina 00:02:41:32.118 510.00 GranFondo Km 44
24 Sapone Vincenzo San Lucido Bikers 00:02:47:17.070 505.00 GranFondo Km 44
25 Clari Stefano Antonio Simone Fly Fitness 00:02:49:52.799 500.00 GranFondo Km 44
26 Galvagno Andrea Probike Bronte 00:02:53:05.250 498.00 GranFondo Km 44
27 Labate Vincenzo MTB Melito 00:03:01:47.164 496.00 GranFondo Km 44
28 Mondello Placido Giuseppe Team Max Bici 00:03:07:42.875 494.00 GranFondo Km 44
Categoria VET 1
1 Alampi Omar Marco Montoli 00:02:09:10.022 1000.00 GranFondo Km 44
2 Valastro Francesco Marco Montoli 00:02:11:12.254 850.00 GranFondo Km 44
3 Bonanno Giovanni B. EMM. C. BIKE 00:02:12:16.245 800.00 GranFondo Km 44
4 Trapani Salvatore Team Bike Condofuri 00:02:13:46.982 750.00 GranFondo Km 44
5 Caspanello Carlo Team Jonica Megamo 00:02:14:38.226 700.00 GranFondo Km 44
6 Santapaola Giuseppe Team Bike del Tirreno 00:02:17:48.198 675.00 GranFondo Km 44
7 Magro Sandro Amici Del Pedale Scicli 00:02:20:26.385 650.00 GranFondo Km 44
8 Casali Antonino Reventino Bike Team 00:02:21:03.169 625.00 GranFondo Km 44
9 Sapone Francesco San Lucido Bikers 00:02:22:26.158 600.00 GranFondo Km 44
10 Bianco Dominich Vibo Bikers Skatenati 00:02:22:27.907 575.00 GranFondo Km 44
11 Nucara Carmelo Marco Montoli 00:02:35:05.584 570.00 GranFondo Km 44
12 Longo Francesco Team Bike del Tirreno 00:02:35:05.702 565.00 GranFondo Km 44
13 Tripoli Pietro Bodymind 00:02:35:05.820 560.00 GranFondo Km 44
14 Alfonso Carmelo Bodymind 00:02:35:05.879 555.00 GranFondo Km 44
15 Mondo Andrea Bici & Bike 00:02:35:05.908 550.00 GranFondo Km 44
16 Bruno Cono Ciclo Tyndaris 00:02:35:54.165 545.00 GranFondo Km 44
17 Palmeri Giuseppe Bike Marino Messina 00:02:37:45.650 540.00 GranFondo Km 44
18 Cicero Gianluca Passione MTB Messina 00:02:41:25.619 535.00 GranFondo Km 44
19 Buonvicino Nicola Passione MTB Messina 00:02:43:01.606 530.00 GranFondo Km 44
20 Versace Simone Marco Montoli 00:02:46:13.496 525.00 GranFondo Km 44
21 Sparacino Salvatore Giuseppe Fly Fitness 00:02:46:14.309 520.00 GranFondo Km 44
22 Restuccia Silvestro Passione MTB Messina 00:02:53:34.515 515.00 GranFondo Km 44
23 Visco Letterio Passione MTB Messina 00:02:54:05.240 510.00 GranFondo Km 44
24 Interdonato Paolo Passione MTB Messina 00:03:03:30.666 505.00 GranFondo Km 44
25 Orlando Vincenzo Passione MTB Messina 00:03:09:27.361 500.00 GranFondo Km 44
Categoria VET 2
1 Campailla Davide MTB Club Vittoria Team 00:02:08:46.775 1000.00 GranFondo Km 44
2 Grasso Salvatore Fausto Coppi Calatabiano 00:02:10:51.257 850.00 GranFondo Km 44
3 Triscari Sebastiano Ciclo Tyndaris 00:02:12:07.246 800.00 GranFondo Km 44
4 Adornetto Silio Ciclo Tyndaris 00:02:15:32.728 750.00 GranFondo Km 44
5 Zerbo Salvatore Maletto Bike 00:02:16:11.212 700.00 GranFondo Km 44
6 Marchese Alessandro Etna Eagles Team 00:02:17:17.452 675.00 GranFondo Km 44
7 Cicala Emanuele ASD Enerwolf 00:02:19:51.680 650.00 GranFondo Km 44
8 Miceli Marco Ciclo Tyndaris 00:02:20:00.678 625.00 GranFondo Km 44
9 Scopelliti Pietro Stefano Vibo Bikers Skatenati 00:02:20:06.387 600.00 GranFondo Km 44
10 Cacciola Vincenzo ASD Enerwolf 00:02:21:56.421 575.00 GranFondo Km 44
11 Pepi Dino MTB Club Vittoria Team 00:02:22:28.368 570.00 GranFondo Km 44
12 D'Angelo Giuseppe Leto Free Bike Piero Leone 00:02:22:34.656 565.00 GranFondo Km 44
13 Pandolfo Maurizio ASD Enerwolf 00:02:24:46.637 560.00 GranFondo Km 44
14 Drago Marcello Ciclo Tyndaris 00:02:27:02.118 555.00 GranFondo Km 44
15 Giorgianni Giuseppe Passione MTB Messina 00:02:31:04.000 550.00 GranFondo Km 44
16 Bucceri Alfio Leto Free Bike Piero Leone 00:02:33:05.000 545.00 GranFondo Km 44
17 Spinelli Rocco Vibo Bikers Skatenati 00:02:34:05.528 540.00 GranFondo Km 44
18 Finocchiaro Filippo Acireale Cycling Team 00:02:37:35.381 535.00 GranFondo Km 44
19 Palella Davide Fabiano Fly Fitness 00:02:37:48.389 530.00 GranFondo Km 44
20 Cacciola Antonino Fly Fitness 00:02:46:59.076 525.00 GranFondo Km 44
21 Florio Antonino Passione MTB Messina 00:02:47:15.071 520.00 GranFondo Km 44
22 Cerrocchi Antonello San Lucido Bikers 00:02:47:26.299 515.00 GranFondo Km 44
23 Terranova Giampaolo Polisportiva MTB Avola 00:02:47:37.068 510.00 GranFondo Km 44
24 Fardella Massimiliano Ciclo Tyndaris 00:02:50:39.271 505.00 GranFondo Km 44
25 Currò Andrea Passione MTB Messina 00:03:02:15.428 500.00 GranFondo Km 44
26 Bottari Pietro Passione MTB Messina 00:03:04:33.905 498.00 GranFondo Km 44
27 Giorgio Francesco Passione MTB Messina 00:03:05:47.904 496.00 GranFondo Km 44
28 Carere Angelo Giuseppe Admo Bikers Team Rc 00:03:07:05.631 494.00 GranFondo Km 44
29 Cardile Adolfo Mediterranea Club 00:03:18:00.020 492.00 GranFondo Km 44
30 De Simone Paolo Marco Montoli 00:03:28:58.197 490.00 GranFondo Km 44
Categoria GEN 1
1 Brancato Domenico ASD Enerwolf 00:02:11:30.462 1000.00 GranFondo Km 44
2 Mezzasalma Maurizio Team Alì Cycling 00:02:11:41.750 850.00 GranFondo Km 44
3 Mercante Carmelo MTB Club Vittoria Team 00:02:12:38.452 800.00 GranFondo Km 44
4 Totaro Giuseppe Team Jonica Megamo 00:02:15:05.221 750.00 GranFondo Km 44
5 Daniele Renato Vibo Bikers Skatenati 00:02:15:06.471 700.00 GranFondo Km 44
6 Startari Umberto Be-Cycle 00:02:20:03.678 675.00 GranFondo Km 44
7 Di Renzo Rosario Vibo Bikers Skatenati 00:02:20:25.675 650.00 GranFondo Km 44
8 Trimarchi Vincenzo Roberto Team Jonica Megamo 00:02:34:35.792 625.00 GranFondo Km 44
9 Bombaci Melchior Team Jonica Megamo 00:02:34:50.924 600.00 GranFondo Km 44
10 Condrò Giuseppe Team Max Bici 00:02:35:05.923 575.00 GranFondo Km 44
11 Cordaro Salvatore ASD Enerwolf 00:02:36:48.158 570.00 GranFondo Km 44
12 Pino Giovanni Bici & Bike 00:02:37:54.648 565.00 GranFondo Km 44
13 Romeo Nino Passione MTB Messina 00:02:39:10.138 560.00 GranFondo Km 44
14 Piccione Ubaldo MTB Club Vittoria Team 00:02:39:37.366 555.00 GranFondo Km 44
15 Mercante Sebastiano MTB Club Vittoria Team 00:02:43:38.851 550.00 GranFondo Km 44
16 Cicciò Fabio Passione MTB Messina 00:02:44:00.328 545.00 GranFondo Km 44
17 Belardinelli Alessandro Bike Marino Messina 00:02:47:33.069 540.00 GranFondo Km 44
18 Saitta Francesco Mediterranea Club 00:02:51:59.029 535.00 GranFondo Km 44
19 Parisi Salvatore Mediterranea Club 00:02:53:43.244 530.00 GranFondo Km 44
20 Impellizzeri Onofrio Fly Fitness 00:02:54:44.505 525.00 GranFondo Km 44
21 Paratore Filippo Team Max Bici 00:02:56:35.217 520.00 GranFondo Km 44
22 De Salvo Placido Bike Marino Messina 00:03:02:41.674 515.00 GranFondo Km 44
23 Corvaia Giuseppe Passione MTB Messina 00:03:03:13.151 510.00 GranFondo Km 44
24 Accetta Angelo Team Max Bici 00:03:07:07.110 505.00 GranFondo Km 44
25 Dalì Maurizio Team Jonica Megamo 00:03:53:41.098 500.00 GranFondo Km 44
Categoria GEN 2
1 Pino Giovanni Cateno Leto Free Bike Piero Leone 00:02:14:54.973 1000.00 GranFondo Km 44
2 Privitera Tommaso Giampi Clan 00:02:26:44.121 850.00 GranFondo Km 44
3 Calcopietro Francesco Be-Cycle 00:02:35:02.273 800.00 GranFondo Km 44
4 Patanè Salvatore Antonio ASD Enerwolf 00:02:50:52.792 750.00 GranFondo Km 44
5 Argentino Giuseppe Polisportiva MTB Avola 00:02:53:54.512 700.00 GranFondo Km 44
Richiedi Assistenza